createdAt,value
2019-04-11T00:00:44.151Z,11.30
2019-04-11T00:03:15.352Z,11.40
2019-04-11T00:05:45.576Z,11.40
2019-04-11T00:08:15.756Z,11.30
2019-04-11T00:10:46.847Z,11.20
2019-04-11T00:13:23.896Z,11.10
2019-04-11T00:15:49.260Z,11.20
2019-04-11T00:18:19.428Z,11.30
2019-04-11T00:20:50.621Z,11.30
2019-04-11T00:23:21.785Z,11.20
2019-04-11T00:25:52.100Z,11.10
2019-04-11T00:28:22.288Z,11.00
2019-04-11T00:30:52.550Z,10.90
2019-04-11T00:33:23.558Z,10.90
2019-04-11T00:35:55.674Z,10.80
2019-04-11T00:38:25.924Z,10.80
2019-04-11T00:40:56.125Z,10.90
2019-04-11T00:43:31.606Z,10.90
2019-04-11T00:45:58.288Z,10.90
2019-04-11T00:48:28.533Z,10.90
2019-04-11T00:50:59.321Z,10.80
2019-04-11T00:53:29.851Z,10.80
2019-04-11T00:56:00.195Z,10.80
2019-04-11T00:58:30.488Z,10.70
2019-04-11T01:01:01.663Z,10.80
2019-04-11T01:03:32.048Z,10.90
2019-04-11T01:06:02.248Z,10.80
2019-04-11T01:08:32.566Z,10.60
2019-04-11T01:11:03.613Z,10.50
2019-04-11T01:13:41.451Z,10.50
2019-04-11T01:16:16.208Z,10.60
2019-04-11T01:18:46.524Z,10.70
2019-04-11T01:21:17.842Z,10.70
2019-04-11T01:23:48.115Z,10.70
2019-04-11T01:26:19.147Z,10.70
2019-04-11T01:28:49.448Z,10.70
2019-04-11T01:31:21.826Z,10.60
2019-04-11T01:33:52.075Z,10.60
2019-04-11T01:36:22.733Z,10.60
2019-04-11T01:38:56.817Z,10.60
2019-04-11T01:41:27.203Z,10.60
2019-04-11T01:44:02.202Z,10.60
2019-04-11T01:46:29.815Z,10.40
2019-04-11T01:49:20.320Z,10.20
2019-04-11T01:51:50.815Z,10.10
2019-04-11T01:54:21.787Z,10.10
2019-04-11T01:56:52.024Z,10.20
2019-04-11T01:59:22.187Z,10.20
2019-04-11T02:02:09.973Z,10.10
2019-04-11T02:05:08.355Z,10.20
2019-04-11T02:07:38.702Z,10.20
2019-04-11T02:10:10.560Z,10.10
2019-04-11T02:12:41.542Z,10.00
2019-04-11T02:15:12.324Z,10.00
2019-04-11T02:17:43.241Z,10.00
2019-04-11T02:20:14.537Z,9.90
2019-04-11T02:22:55.088Z,10.00
2019-04-11T02:25:47.073Z,9.90
2019-04-11T02:28:18.092Z,9.90
2019-04-11T02:30:51.812Z,9.90
2019-04-11T02:33:25.819Z,9.80
2019-04-11T02:35:56.420Z,9.70
2019-04-11T02:38:28.474Z,9.80
2019-04-11T02:40:58.745Z,9.80
2019-04-11T02:43:29.577Z,9.70
2019-04-11T02:46:11.750Z,9.60
2019-04-11T02:48:33.003Z,9.60
2019-04-11T02:51:05.235Z,9.50
2019-04-11T02:53:36.807Z,9.50
2019-04-11T02:56:09.324Z,9.60
2019-04-11T02:58:40.098Z,9.60
2019-04-11T03:01:12.288Z,9.60
2019-04-11T03:03:42.518Z,9.60
2019-04-11T03:06:13.141Z,9.40
2019-04-11T03:08:43.820Z,9.30
2019-04-11T03:11:16.536Z,9.20
2019-04-11T03:13:50.453Z,9.30
2019-04-11T03:16:33.241Z,9.30
2019-04-11T03:19:09.930Z,9.20
2019-04-11T03:21:26.887Z,9.10
2019-04-11T03:23:58.615Z,9.10
2019-04-11T03:26:29.155Z,9.20
2019-04-11T03:28:59.781Z,9.20
2019-04-11T03:32:10.946Z,9.20
2019-04-11T03:34:51.886Z,9.10
2019-04-11T03:37:13.592Z,9.10
2019-04-11T03:39:28.343Z,9.20
2019-04-11T03:41:59.353Z,9.20
2019-04-11T03:44:24.416Z,9.20
2019-04-11T03:47:06.400Z,9.10
2019-04-11T03:49:31.705Z,9.20
2019-04-11T03:51:53.109Z,9.20
2019-04-11T03:54:25.133Z,9.20
2019-04-11T03:56:57.235Z,9.20
2019-04-11T03:59:28.966Z,9.20
2019-04-11T04:02:00.075Z,9.20
2019-04-11T04:04:30.561Z,9.10
2019-04-11T04:07:02.445Z,9.10
2019-04-11T04:09:32.950Z,9.00
2019-04-11T04:12:04.888Z,8.90
2019-04-11T04:14:45.242Z,8.80
2019-04-11T04:17:35.234Z,8.80
2019-04-11T04:20:33.049Z,8.80
2019-04-11T04:23:12.407Z,8.70
2019-04-11T04:25:44.938Z,8.80
2019-04-11T04:28:15.620Z,8.70
2019-04-11T04:30:47.016Z,8.60
2019-04-11T04:33:19.329Z,8.50
2019-04-11T04:35:49.737Z,8.40
2019-04-11T04:38:21.106Z,8.40
2019-04-11T04:41:07.478Z,8.30
2019-04-11T04:43:27.336Z,8.40
2019-04-11T04:46:12.144Z,8.50
2019-04-11T04:48:30.139Z,8.50
2019-04-11T04:51:07.324Z,8.60
2019-04-11T04:53:35.003Z,8.40
2019-04-11T04:56:06.621Z,8.40
2019-04-11T04:58:37.815Z,8.30
2019-04-11T05:01:10.048Z,8.30
2019-04-11T05:03:40.494Z,8.20
2019-04-11T05:06:11.958Z,8.10
2019-04-11T05:08:43.088Z,8.20
2019-04-11T05:11:13.963Z,8.30
2019-04-11T05:13:48.179Z,8.30
2019-04-11T05:16:17.807Z,8.20
2019-04-11T05:18:50.491Z,8.10
2019-04-11T05:21:21.278Z,8.00
2019-04-11T05:23:52.169Z,8.10
2019-04-11T05:26:23.546Z,8.10
2019-04-11T05:28:55.693Z,8.30
2019-04-11T05:31:26.944Z,8.30
2019-04-11T05:33:57.325Z,8.30
2019-04-11T05:36:28.305Z,8.30
2019-04-11T05:38:58.590Z,8.20
2019-04-11T05:41:29.391Z,8.20
2019-04-11T05:44:03.407Z,8.30
2019-04-11T05:46:47.263Z,8.30
2019-04-11T05:49:14.669Z,8.40
2019-04-11T05:51:58.146Z,8.30
2019-04-11T05:54:29.317Z,8.40
2019-04-11T05:57:01.288Z,8.40
2019-04-11T05:59:32.678Z,8.50
2019-04-11T06:02:13.061Z,8.40
2019-04-11T06:04:51.974Z,8.40
2019-04-11T06:07:47.010Z,8.40
2019-04-11T06:10:19.937Z,8.50
2019-04-11T06:13:10.085Z,8.50
2019-04-11T06:15:44.292Z,8.50
2019-04-11T06:18:45.967Z,8.50
2019-04-11T06:21:44.381Z,8.50
2019-04-11T06:24:32.316Z,8.60
2019-04-11T06:27:22.175Z,8.60
2019-04-11T06:30:10.083Z,8.60
2019-04-11T06:33:00.309Z,8.50
2019-04-11T06:35:52.456Z,8.50
2019-04-11T06:38:49.155Z,8.60
2019-04-11T06:41:38.850Z,8.60
2019-04-11T06:44:34.316Z,8.50
2019-04-11T06:47:27.191Z,8.50
2019-04-11T06:50:28.273Z,8.40
2019-04-11T06:52:58.748Z,8.50
2019-04-11T06:55:46.825Z,8.50
2019-04-11T06:58:21.482Z,8.60
2019-04-11T07:00:59.542Z,8.70
2019-04-11T07:03:33.822Z,8.70
2019-04-11T07:06:11.233Z,8.70
2019-04-11T07:08:54.781Z,8.70
2019-04-11T07:11:31.953Z,8.80
2019-04-11T07:14:12.500Z,8.90
2019-04-11T07:17:07.143Z,8.90
2019-04-11T07:20:04.872Z,9.20
2019-04-11T07:22:52.500Z,9.40
2019-04-11T07:25:43.190Z,9.50
2019-04-11T07:28:33.606Z,9.50
2019-04-11T07:31:21.819Z,9.70
2019-04-11T07:34:10.674Z,9.80
2019-04-11T07:36:58.321Z,9.70
2019-04-11T07:39:56.681Z,10.00
2019-04-11T07:42:44.282Z,10.50
2019-04-11T07:45:18.889Z,10.80
2019-04-11T07:47:54.787Z,11.40
2019-04-11T07:50:26.199Z,12.00
2019-04-11T07:53:01.349Z,12.30
2019-04-11T07:55:32.246Z,12.60
2019-04-11T07:58:39.843Z,12.70
2019-04-11T08:01:27.619Z,12.80
2019-04-11T08:04:22.545Z,13.10
2019-04-11T08:07:10.714Z,13.50
2019-04-11T08:09:52.736Z,13.50
2019-04-11T08:12:26.021Z,13.80
2019-04-11T08:15:31.303Z,14.30
2019-04-11T08:18:08.080Z,14.00
2019-04-11T08:21:00.210Z,13.50
2019-04-11T08:23:30.510Z,13.00
2019-04-11T08:26:26.252Z,12.60
2019-04-11T08:29:06.158Z,12.40
2019-04-11T08:31:36.492Z,12.00
2019-04-11T08:34:07.954Z,11.90
2019-04-11T08:36:57.361Z,11.50
2019-04-11T08:39:31.772Z,11.30
2019-04-11T08:42:31.683Z,11.40
2019-04-11T08:45:02.087Z,11.30
2019-04-11T08:47:47.091Z,11.40
2019-04-11T08:50:16.405Z,11.30
2019-04-11T08:53:08.824Z,11.40
2019-04-11T08:55:55.275Z,11.70
2019-04-11T08:58:30.918Z,12.00
2019-04-11T09:01:05.500Z,12.20
2019-04-11T09:04:02.164Z,12.20
2019-04-11T09:06:31.139Z,12.20
2019-04-11T09:09:19.016Z,12.30
2019-04-11T09:11:51.965Z,12.30
2019-04-11T09:14:44.516Z,12.10
2019-04-11T09:17:23.380Z,12.00
2019-04-11T09:20:13.591Z,11.90
2019-04-11T09:22:57.464Z,11.80
2019-04-11T09:25:59.464Z,11.80
2019-04-11T09:28:51.467Z,11.80
2019-04-11T09:31:41.715Z,11.70
2019-04-11T09:34:44.099Z,11.90
2019-04-11T09:37:33.661Z,11.80
2019-04-11T09:40:17.959Z,11.70
2019-04-11T09:42:57.590Z,11.80
2019-04-11T09:45:52.836Z,11.80
2019-04-11T09:48:31.523Z,11.80
2019-04-11T09:51:19.400Z,11.80
2019-04-11T09:53:57.046Z,12.10
2019-04-11T09:56:58.210Z,12.00
2019-04-11T09:59:47.740Z,12.10
2019-04-11T10:02:44.022Z,12.20
2019-04-11T10:05:16.033Z,12.10
2019-04-11T10:08:11.217Z,12.10
2019-04-11T10:10:59.652Z,12.10
2019-04-11T10:13:46.433Z,11.90
2019-04-11T10:16:53.590Z,11.90
2019-04-11T10:19:42.304Z,12.00
2019-04-11T10:22:44.007Z,12.00
2019-04-11T10:25:21.233Z,12.20
2019-04-11T10:28:29.484Z,12.30
2019-04-11T10:31:08.647Z,12.40
2019-04-11T10:33:58.014Z,12.60
2019-04-11T10:36:37.393Z,12.60
2019-04-11T10:39:37.596Z,12.50
2019-04-11T10:42:10.556Z,12.40
2019-04-11T10:45:18.508Z,12.40
2019-04-11T10:47:51.071Z,12.40
2019-04-11T10:50:36.039Z,12.60
2019-04-11T10:53:06.876Z,12.50
2019-04-11T10:56:08.557Z,12.70
2019-04-11T10:59:07.146Z,12.90
2019-04-11T11:02:12.652Z,12.80
2019-04-11T11:04:49.046Z,12.90
2019-04-11T11:07:22.109Z,12.90
2019-04-11T11:10:15.314Z,12.90
2019-04-11T11:13:02.976Z,12.80
2019-04-11T11:15:37.897Z,13.10
2019-04-11T11:19:14.014Z,13.10
2019-04-11T11:21:05.306Z,13.20
2019-04-11T11:24:10.316Z,13.30
2019-04-11T11:26:41.180Z,13.60
2019-04-11T11:29:45.475Z,13.50
2019-04-11T11:32:25.311Z,13.30
2019-04-11T11:35:15.163Z,13.30
2019-04-11T11:37:47.569Z,13.20
2019-04-11T11:40:39.187Z,13.40
2019-04-11T11:43:23.188Z,13.30
2019-04-11T11:46:10.411Z,13.40
2019-04-11T11:48:59.692Z,13.60
2019-04-11T11:51:47.752Z,13.70
2019-04-11T11:54:21.951Z,13.70
2019-04-11T11:56:54.075Z,13.70
2019-04-11T11:59:48.214Z,13.90
2019-04-11T12:02:40.828Z,13.90
2019-04-11T12:05:26.104Z,14.00
2019-04-11T12:08:18.221Z,14.20
2019-04-11T12:10:51.429Z,14.10
2019-04-11T12:13:34.671Z,14.10
2019-04-11T12:16:19.266Z,14.00
2019-04-11T12:19:22.193Z,14.00
2019-04-11T12:21:53.912Z,14.10
2019-04-11T12:24:43.317Z,13.90
2019-04-11T12:27:31.146Z,14.10
2019-04-11T12:30:23.455Z,14.00
2019-04-11T12:33:10.948Z,13.80
2019-04-11T12:35:59.098Z,13.70
2019-04-11T12:38:57.484Z,13.90
2019-04-11T12:41:45.112Z,13.80
2019-04-11T12:44:49.321Z,13.90
2019-04-11T12:47:40.952Z,14.20
2019-04-11T12:50:30.496Z,14.10
2019-04-11T12:53:09.136Z,14.00
2019-04-11T12:55:58.380Z,13.90
2019-04-11T12:58:47.623Z,13.70
2019-04-11T13:01:45.577Z,13.70
2019-04-11T13:04:24.549Z,13.80
2019-04-11T13:07:13.794Z,14.00
2019-04-11T13:09:47.559Z,14.00
2019-04-11T13:12:34.652Z,14.20
2019-04-11T13:15:23.245Z,14.40
2019-04-11T13:18:11.236Z,14.30
2019-04-11T13:20:51.569Z,14.20
2019-04-11T13:23:43.939Z,14.10
2019-04-11T13:26:31.601Z,14.10
2019-04-11T13:29:11.390Z,14.10
2019-04-11T13:31:59.115Z,14.10
2019-04-11T13:34:29.557Z,14.20
2019-04-11T13:37:33.774Z,14.20
2019-04-11T13:40:15.622Z,14.10
2019-04-11T13:43:03.304Z,14.30
2019-04-11T13:45:35.640Z,14.30
2019-04-11T13:48:23.628Z,14.30
2019-04-11T13:50:53.908Z,14.10
2019-04-11T13:53:58.036Z,14.30
2019-04-11T13:56:35.871Z,14.40
2019-04-11T13:59:23.834Z,14.40
2019-04-11T14:01:57.085Z,14.50
2019-04-11T14:04:32.377Z,14.50
2019-04-11T14:07:02.668Z,14.70
2019-04-11T14:09:36.177Z,14.70
2019-04-11T14:12:10.472Z,14.50
2019-04-11T14:15:06.001Z,14.30
2019-04-11T14:17:47.638Z,14.10
2019-04-11T14:20:42.939Z,14.00
2019-04-11T14:23:35.396Z,14.00
2019-04-11T14:26:30.993Z,14.20
2019-04-11T14:29:20.289Z,14.40
2019-04-11T14:32:04.241Z,14.70
2019-04-11T14:34:47.316Z,14.70
2019-04-11T14:37:38.398Z,14.70
2019-04-11T14:40:22.436Z,14.70
2019-04-11T14:43:10.114Z,14.30
2019-04-11T14:46:11.161Z,14.00
2019-04-11T14:48:43.512Z,14.00
2019-04-11T14:51:27.975Z,14.20
2019-04-11T14:54:18.199Z,14.20
2019-04-11T14:56:55.566Z,14.30
2019-04-11T14:59:29.414Z,14.40
2019-04-11T15:02:04.782Z,14.70
2019-04-11T15:04:54.017Z,14.70
2019-04-11T15:07:26.600Z,14.50
2019-04-11T15:10:01.841Z,14.10
2019-04-11T15:12:33.730Z,14.00
2019-04-11T15:15:23.221Z,13.80
2019-04-11T15:17:58.986Z,13.80
2019-04-11T15:20:41.022Z,13.70
2019-04-11T15:23:37.532Z,13.80
2019-04-11T15:26:26.496Z,13.80
2019-04-11T15:28:59.902Z,13.90
2019-04-11T15:31:46.484Z,13.90
2019-04-11T15:34:38.167Z,13.90
2019-04-11T15:37:28.144Z,13.90
2019-04-11T15:40:20.668Z,13.90
2019-04-11T15:43:28.064Z,13.80
2019-04-11T15:46:01.402Z,13.70
2019-04-11T15:49:02.653Z,13.70
2019-04-11T15:51:40.204Z,13.70
2019-04-11T15:54:29.457Z,13.60
2019-04-11T15:57:22.148Z,13.60
2019-04-11T16:00:29.339Z,13.70
2019-04-11T16:03:17.240Z,13.80
2019-04-11T16:06:09.219Z,13.80
2019-04-11T16:08:58.464Z,13.90
2019-04-11T16:11:53.740Z,13.80
2019-04-11T16:14:26.722Z,13.80
2019-04-11T16:17:33.930Z,13.70
2019-04-11T16:20:13.080Z,13.70
2019-04-11T16:23:02.333Z,13.60
2019-04-11T16:25:32.617Z,13.60
2019-04-11T16:28:20.251Z,13.60
2019-04-11T16:30:52.429Z,13.60
2019-04-11T16:33:45.877Z,13.60
2019-04-11T16:36:19.682Z,13.60
2019-04-11T16:38:57.367Z,13.60
2019-04-11T16:41:45.020Z,13.50
2019-04-11T16:44:24.868Z,13.40
2019-04-11T16:47:27.070Z,13.30
2019-04-11T16:49:57.625Z,13.40
2019-04-11T16:52:27.932Z,13.40
2019-04-11T16:54:58.321Z,13.40
2019-04-11T16:57:28.641Z,13.40
2019-04-11T16:59:58.833Z,13.40
2019-04-11T17:02:29.155Z,13.30
2019-04-11T17:04:59.485Z,13.40
2019-04-11T17:07:48.737Z,13.40
2019-04-11T17:10:20.617Z,13.30
2019-04-11T17:12:50.984Z,13.30
2019-04-11T17:15:21.261Z,13.20
2019-04-11T17:17:53.564Z,13.20
2019-04-11T17:20:23.585Z,13.20
2019-04-11T17:22:53.866Z,13.10
2019-04-11T17:25:24.226Z,13.10
2019-04-11T17:27:54.485Z,13.10
2019-04-11T17:30:25.164Z,13.10
2019-04-11T17:32:55.689Z,13.00
2019-04-11T17:35:26.394Z,12.90
2019-04-11T17:37:56.633Z,12.90
2019-04-11T17:40:26.829Z,12.80
2019-04-11T17:42:57.139Z,12.70
2019-04-11T17:45:27.485Z,12.60
2019-04-11T17:47:57.901Z,12.70
2019-04-11T17:50:28.208Z,12.70
2019-04-11T17:52:58.587Z,12.60
2019-04-11T17:55:28.933Z,12.50
2019-04-11T17:57:59.258Z,12.40
2019-04-11T18:00:31.909Z,12.30
2019-04-11T18:03:02.231Z,12.30
2019-04-11T18:05:34.473Z,12.30
2019-04-11T18:08:04.571Z,12.20
2019-04-11T18:10:35.140Z,12.20
2019-04-11T18:13:07.545Z,12.20
2019-04-11T18:15:37.837Z,12.20
2019-04-11T18:18:08.122Z,12.20
2019-04-11T18:20:40.375Z,12.20
2019-04-11T18:23:10.704Z,12.20
2019-04-11T18:25:40.952Z,12.10
2019-04-11T18:28:11.153Z,12.00
2019-04-11T18:30:41.387Z,12.00
2019-04-11T18:33:11.659Z,12.00
2019-04-11T18:35:41.949Z,12.00
2019-04-11T18:38:12.252Z,12.00
2019-04-11T18:40:42.545Z,11.90
2019-04-11T18:43:16.018Z,11.80
2019-04-11T18:45:44.850Z,11.70
2019-04-11T18:48:15.162Z,11.70
2019-04-11T18:50:45.485Z,11.70
2019-04-11T18:53:15.856Z,11.70
2019-04-11T18:55:46.133Z,11.70
2019-04-11T18:58:16.564Z,11.70
2019-04-11T19:00:46.781Z,11.70
2019-04-11T19:03:17.258Z,11.70
2019-04-11T19:05:47.493Z,11.70
2019-04-11T19:08:17.863Z,11.70
2019-04-11T19:10:48.325Z,11.60
2019-04-11T19:13:18.562Z,11.50
2019-04-11T19:15:48.919Z,11.50
2019-04-11T19:18:19.245Z,11.50
2019-04-11T19:20:50.296Z,11.50
2019-04-11T19:23:21.197Z,11.50
2019-04-11T19:25:51.460Z,11.50
2019-04-11T19:28:24.921Z,11.40
2019-04-11T19:30:55.961Z,11.40
2019-04-11T19:33:25.700Z,11.30
2019-04-11T19:35:56.005Z,11.40
2019-04-11T19:38:28.474Z,11.30
2019-04-11T19:40:58.781Z,11.30
2019-04-11T19:43:29.082Z,11.30
2019-04-11T19:45:59.496Z,11.30
2019-04-11T19:48:29.808Z,11.40
2019-04-11T19:51:00.231Z,11.40
2019-04-11T19:53:32.732Z,11.30
2019-04-11T19:56:16.771Z,11.30
2019-04-11T19:58:47.053Z,11.30
2019-04-11T20:01:17.354Z,11.20
2019-04-11T20:03:47.669Z,11.20
2019-04-11T20:06:17.861Z,11.20
2019-04-11T20:08:48.217Z,11.10
2019-04-11T20:11:18.566Z,11.10
2019-04-11T20:13:48.859Z,11.10
2019-04-11T20:16:19.155Z,11.00
2019-04-11T20:18:51.406Z,11.00
2019-04-11T20:21:21.511Z,11.10
2019-04-11T20:23:51.966Z,11.10
2019-04-11T20:26:22.181Z,11.10
2019-04-11T20:28:52.504Z,11.10
2019-04-11T20:31:22.795Z,11.10
2019-04-11T20:33:53.094Z,11.10
2019-04-11T20:36:32.906Z,11.00
2019-04-11T20:38:55.394Z,11.00
2019-04-11T20:41:25.794Z,11.00
2019-04-11T20:43:57.089Z,11.00
2019-04-11T20:46:29.129Z,11.00
2019-04-11T20:48:59.544Z,11.20
2019-04-11T20:51:29.923Z,11.10
2019-04-11T20:54:00.237Z,11.10
2019-04-11T20:56:30.537Z,11.10
2019-04-11T20:59:00.777Z,11.10
2019-04-11T21:01:31.056Z,11.00
2019-04-11T21:04:04.461Z,11.00
2019-04-11T21:06:33.289Z,10.90
2019-04-11T21:09:05.179Z,10.80
2019-04-11T21:11:37.142Z,10.80
2019-04-11T21:14:07.633Z,10.80
2019-04-11T21:16:37.900Z,10.80
2019-04-11T21:19:08.217Z,10.80
2019-04-11T21:21:38.486Z,10.90
2019-04-11T21:24:08.805Z,10.80
2019-04-11T21:26:39.043Z,10.80
2019-04-11T21:29:09.365Z,10.70
2019-04-11T21:31:39.646Z,10.80
2019-04-11T21:34:09.968Z,10.70
2019-04-11T21:36:40.175Z,10.60
2019-04-11T21:39:10.490Z,10.50
2019-04-11T21:41:40.786Z,10.70
2019-04-11T21:44:11.105Z,10.50
2019-04-11T21:46:42.015Z,10.50
2019-04-11T21:49:12.497Z,10.30
2019-04-11T21:51:42.772Z,10.30
2019-04-11T21:54:15.106Z,10.40
2019-04-11T21:56:49.274Z,10.40
2019-04-11T21:59:20.026Z,10.40
2019-04-11T22:01:49.129Z,10.20
2019-04-11T22:04:19.404Z,10.10
2019-04-11T22:06:49.708Z,10.10
2019-04-11T22:09:20.021Z,10.10
2019-04-11T22:11:50.218Z,9.90
2019-04-11T22:14:20.421Z,9.80
2019-04-11T22:16:50.656Z,9.80
2019-04-11T22:19:20.906Z,9.90
2019-04-11T22:21:51.122Z,9.80
2019-04-11T22:24:21.379Z,9.70
2019-04-11T22:26:51.952Z,9.70
2019-04-11T22:29:24.876Z,9.70
2019-04-11T22:31:56.053Z,9.70
2019-04-11T22:34:34.101Z,9.60
2019-04-11T22:37:04.922Z,9.50
2019-04-11T22:39:35.276Z,9.40
2019-04-11T22:42:05.557Z,9.30
2019-04-11T22:44:37.938Z,9.40
2019-04-11T22:47:08.584Z,9.30
2019-04-11T22:49:39.504Z,9.40
2019-04-11T22:52:11.340Z,9.50
2019-04-11T22:54:42.382Z,9.30
2019-04-11T22:57:12.934Z,9.40
2019-04-11T22:59:45.052Z,9.40
2019-04-11T23:02:40.556Z,9.30
2019-04-11T23:05:10.932Z,9.20
2019-04-11T23:07:41.125Z,9.30
2019-04-11T23:10:11.532Z,9.20
2019-04-11T23:12:45.457Z,9.30
2019-04-11T23:15:15.111Z,9.10
2019-04-11T23:17:45.924Z,9.00
2019-04-11T23:20:16.295Z,9.00
2019-04-11T23:22:46.451Z,9.10
2019-04-11T23:25:16.741Z,9.00
2019-04-11T23:27:47.032Z,9.00
2019-04-11T23:30:18.425Z,8.80
2019-04-11T23:32:51.700Z,8.60
2019-04-11T23:35:21.355Z,8.80
2019-04-11T23:37:52.172Z,8.80
2019-04-11T23:40:22.657Z,8.70
2019-04-11T23:42:52.841Z,8.50
2019-04-11T23:45:28.526Z,8.50
2019-04-11T23:47:58.756Z,8.50
2019-04-11T23:50:29.076Z,8.60
2019-04-11T23:52:59.431Z,8.70
2019-04-11T23:55:32.089Z,8.60
2019-04-11T23:58:02.374Z,8.60
